createdAt,value
2018-03-18T06:22:34.763Z,23.50
2018-03-18T06:25:06.660Z,23.10
2018-03-18T06:27:38.547Z,20.70
2018-03-18T06:30:10.451Z,22.57
2018-03-18T06:32:42.327Z,23.97
2018-03-18T06:35:14.988Z,24.43
2018-03-18T06:37:46.874Z,24.85
2018-03-18T06:40:18.776Z,25.20
2018-03-18T06:42:50.656Z,18.53
2018-03-18T06:45:22.611Z,20.70
2018-03-18T06:47:54.502Z,21.50
2018-03-18T06:50:27.251Z,24.07
2018-03-18T06:52:59.475Z,23.37
2018-03-18T06:55:31.371Z,20.67
2018-03-18T06:58:03.253Z,20.67
2018-03-18T07:00:35.208Z,22.57
2018-03-18T07:03:07.100Z,24.53
2018-03-18T07:05:39.844Z,20.30
2018-03-18T07:08:11.809Z,22.80
2018-03-18T07:10:44.031Z,24.80
2018-03-18T07:13:15.930Z,21.40
2018-03-18T07:15:47.896Z,29.13
2018-03-18T07:18:19.856Z,22.03
2018-03-18T07:20:51.838Z,25.40
2018-03-18T07:23:24.769Z,22.97
2018-03-18T07:25:56.666Z,25.07
2018-03-18T07:28:28.625Z,26.60
2018-03-18T07:31:01.564Z,25.97
2018-03-18T07:33:33.467Z,22.13
2018-03-18T07:36:05.364Z,20.47
2018-03-18T07:38:38.070Z,22.90
2018-03-18T07:41:09.969Z,19.30
2018-03-18T07:43:41.941Z,22.53
2018-03-18T07:46:13.895Z,22.17
2018-03-18T07:48:45.790Z,21.53
2018-03-18T07:51:18.457Z,20.87
2018-03-18T07:53:50.331Z,20.53
2018-03-18T07:56:22.987Z,24.17
2018-03-18T07:58:54.871Z,22.80
2018-03-18T08:01:27.534Z,21.53
2018-03-18T08:04:00.448Z,26.13
2018-03-18T08:06:32.615Z,19.57
2018-03-18T08:09:04.500Z,21.60
2018-03-18T08:11:36.639Z,21.87
2018-03-18T08:14:08.549Z,24.73
2018-03-18T08:16:40.512Z,19.80
2018-03-18T08:19:12.395Z,21.40
2018-03-18T08:21:45.147Z,18.73
2018-03-18T08:24:17.027Z,19.20
2018-03-18T08:26:48.971Z,17.90
2018-03-18T08:29:21.191Z,23.27
2018-03-18T08:31:53.092Z,20.97
2018-03-18T08:34:25.055Z,19.63
2018-03-18T08:36:57.720Z,18.37
2018-03-18T08:39:29.616Z,21.43
2018-03-18T08:42:01.516Z,17.10
2018-03-18T08:44:33.408Z,21.17
2018-03-18T08:47:05.543Z,17.80
2018-03-18T08:49:37.443Z,17.53
2018-03-18T08:52:09.339Z,20.33
2018-03-18T08:54:42.088Z,27.23
2018-03-18T08:57:14.056Z,17.90
2018-03-18T08:59:45.932Z,19.80
2018-03-18T09:02:17.831Z,19.80
2018-03-18T09:04:49.719Z,22.83
2018-03-18T09:07:21.620Z,15.00
2018-03-18T09:09:54.800Z,16.93
2018-03-18T09:12:26.695Z,21.50
2018-03-18T09:14:58.593Z,21.80
2018-03-18T09:17:30.487Z,18.50
2018-03-18T09:20:03.139Z,20.43
2018-03-18T09:22:35.035Z,16.60
2018-03-18T09:25:07.683Z,16.53
2018-03-18T09:27:39.620Z,19.63
2018-03-18T09:30:11.532Z,23.60
2018-03-18T09:32:44.196Z,23.20
2018-03-18T09:35:16.075Z,18.67
2018-03-18T09:37:48.744Z,17.80
2018-03-18T09:40:20.633Z,17.30
2018-03-18T09:42:52.802Z,18.73
2018-03-18T09:45:24.683Z,16.50
2018-03-18T09:47:56.574Z,20.43
2018-03-18T09:50:28.481Z,17.10
2018-03-18T09:53:00.367Z,15.97
2018-03-18T09:55:32.243Z,14.93
2018-03-18T09:58:05.187Z,19.33
2018-03-18T10:00:37.068Z,16.53
2018-03-18T10:03:09.212Z,18.03
2018-03-18T10:05:41.089Z,18.27
2018-03-18T10:08:13.251Z,21.17
2018-03-18T10:10:45.390Z,17.73
2018-03-18T10:13:17.352Z,14.83
2018-03-18T10:15:49.240Z,16.13
2018-03-18T10:18:21.128Z,20.37
2018-03-18T10:20:53.007Z,18.53
2018-03-18T10:23:24.903Z,18.77
2018-03-18T10:25:56.787Z,22.40
2018-03-18T10:28:28.675Z,18.20
2018-03-18T10:31:00.555Z,14.57
2018-03-18T10:33:32.448Z,16.73
2018-03-18T10:36:04.328Z,16.20
2018-03-18T10:38:36.220Z,18.13
2018-03-18T10:41:09.152Z,19.40
2018-03-18T10:43:41.039Z,18.53
2018-03-18T10:46:12.924Z,16.03
2018-03-18T10:48:44.932Z,14.13
2018-03-18T10:51:16.755Z,17.13
2018-03-18T10:53:48.652Z,14.23
2018-03-18T10:56:20.523Z,16.17
2018-03-18T10:58:52.683Z,16.27
2018-03-18T11:01:24.556Z,12.30
2018-03-18T11:03:56.443Z,19.00
2018-03-18T11:06:28.567Z,16.73
2018-03-18T11:09:00.469Z,17.20
2018-03-18T11:11:32.335Z,15.80
2018-03-18T11:14:04.219Z,14.10
2018-03-18T11:16:36.092Z,14.67
2018-03-18T11:19:08.747Z,19.67
2018-03-18T11:21:40.623Z,15.03
2018-03-18T11:24:13.284Z,16.60
2018-03-18T11:26:45.159Z,14.67
2018-03-18T11:29:17.841Z,14.50
2018-03-18T11:31:50.931Z,13.47
2018-03-18T11:34:23.840Z,13.23
2018-03-18T11:36:55.716Z,12.63
2018-03-18T11:39:27.708Z,11.97
2018-03-18T11:41:59.579Z,16.00
2018-03-18T11:44:31.489Z,14.23
2018-03-18T11:47:03.442Z,14.63
2018-03-18T11:49:35.819Z,14.47
2018-03-18T11:52:07.706Z,14.93
2018-03-18T11:54:39.587Z,15.23
2018-03-18T11:57:11.540Z,12.70
2018-03-18T11:59:43.502Z,13.07
2018-03-18T12:02:16.895Z,14.63
2018-03-18T12:04:48.791Z,14.30
2018-03-18T12:07:21.594Z,12.73
2018-03-18T12:09:53.452Z,15.17
2018-03-18T12:12:25.322Z,15.93
2018-03-18T12:14:57.211Z,13.27
2018-03-18T12:17:29.116Z,14.77
2018-03-18T12:20:01.769Z,11.43
2018-03-18T12:22:33.644Z,16.00
2018-03-18T12:25:06.327Z,13.30
2018-03-18T12:27:38.976Z,12.73
2018-03-18T12:30:10.868Z,11.30
2018-03-18T12:32:43.570Z,12.47
2018-03-18T12:35:15.455Z,15.83
2018-03-18T12:37:47.333Z,14.77
2018-03-18T12:40:26.171Z,14.10
2018-03-18T12:43:09.976Z,16.20
2018-03-18T12:45:41.870Z,13.00
2018-03-18T12:48:13.822Z,14.47
2018-03-18T12:50:45.711Z,11.63
2018-03-18T12:53:18.480Z,12.67
2018-03-18T12:55:50.423Z,13.83
2018-03-18T12:58:22.303Z,12.73
2018-03-18T13:00:54.508Z,13.23
2018-03-18T13:03:26.381Z,17.37
2018-03-18T13:05:58.503Z,13.50
2018-03-18T13:08:30.448Z,13.67
2018-03-18T13:11:02.360Z,12.30
2018-03-18T13:13:34.259Z,14.03
2018-03-18T13:16:06.151Z,12.57
2018-03-18T13:18:38.795Z,13.00
2018-03-18T13:21:12.452Z,16.60
2018-03-18T13:23:44.355Z,10.30
2018-03-18T13:26:16.248Z,11.13
2018-03-18T13:28:48.891Z,11.77
2018-03-18T13:31:20.889Z,11.67
2018-03-18T13:33:52.753Z,15.23
2018-03-18T13:36:25.502Z,14.40
2018-03-18T13:38:57.627Z,14.97
2018-03-18T13:41:29.524Z,17.63
2018-03-18T13:44:01.400Z,16.80
2018-03-18T13:46:33.607Z,11.20
2018-03-18T13:49:05.535Z,13.17
2018-03-18T13:51:37.432Z,13.80
2018-03-18T13:54:09.315Z,12.90
2018-03-18T13:56:41.298Z,10.60
2018-03-18T13:59:13.598Z,12.30
2018-03-18T14:01:45.492Z,14.73
2018-03-18T14:04:17.395Z,11.23
2018-03-18T14:06:49.284Z,14.93
2018-03-18T14:09:21.923Z,14.00
2018-03-18T14:11:54.046Z,15.40
2018-03-18T14:14:25.925Z,13.97
2018-03-18T14:16:57.812Z,14.40
2018-03-18T14:19:29.931Z,11.70
2018-03-18T14:22:02.101Z,15.40
2018-03-18T14:24:33.975Z,12.27
2018-03-18T14:27:05.874Z,12.40
2018-03-18T14:29:37.881Z,12.53
2018-03-18T14:32:10.049Z,13.37
2018-03-18T14:34:42.216Z,13.17
2018-03-18T14:37:14.103Z,16.20
2018-03-18T14:39:45.975Z,11.10
2018-03-18T14:42:17.882Z,10.27
2018-03-18T14:44:49.771Z,11.23
2018-03-18T14:47:21.648Z,9.10
2018-03-18T14:49:53.527Z,13.17
2018-03-18T14:52:25.448Z,12.03
2018-03-18T14:54:57.326Z,10.13
2018-03-18T14:57:29.212Z,11.30
2018-03-18T15:00:01.083Z,13.73
2018-03-18T15:02:32.972Z,10.93
2018-03-18T15:05:04.857Z,13.20
2018-03-18T15:07:36.747Z,12.37
2018-03-18T15:10:08.657Z,14.43
2018-03-18T15:12:40.597Z,13.63
2018-03-18T15:15:13.242Z,14.07
2018-03-18T15:17:45.139Z,11.07
2018-03-18T15:20:17.773Z,15.70
2018-03-18T15:22:50.004Z,13.47
2018-03-18T15:25:21.880Z,10.60
2018-03-18T15:27:53.767Z,12.43
2018-03-18T15:30:25.674Z,9.43
2018-03-18T15:32:58.323Z,10.20
2018-03-18T15:35:30.210Z,8.83
2018-03-18T15:38:02.855Z,9.20
2018-03-18T15:40:34.963Z,11.43
2018-03-18T15:43:06.851Z,8.07
2018-03-18T15:45:38.729Z,8.87
2018-03-18T15:48:10.640Z,9.87
2018-03-18T15:50:43.527Z,11.47
2018-03-18T15:53:15.416Z,10.20
2018-03-18T15:55:47.288Z,13.33
2018-03-18T15:58:19.219Z,12.27
2018-03-18T16:00:51.116Z,12.30
2018-03-18T16:03:23.000Z,15.47
2018-03-18T16:05:54.871Z,12.70
2018-03-18T16:08:27.775Z,11.07
2018-03-18T16:10:59.648Z,8.17
2018-03-18T16:13:31.536Z,9.13
2018-03-18T16:16:03.415Z,9.80
2018-03-18T16:18:35.304Z,12.00
2018-03-18T16:21:07.947Z,9.60
2018-03-18T16:23:39.828Z,9.00
2018-03-18T16:26:12.463Z,12.37
2018-03-18T16:28:44.351Z,9.53
2018-03-18T16:31:17.033Z,9.53
2018-03-18T16:33:49.030Z,11.23
2018-03-18T16:36:20.900Z,7.90
2018-03-18T16:38:52.804Z,10.60
2018-03-18T16:41:24.686Z,13.27
2018-03-18T16:43:56.588Z,9.43
2018-03-18T16:46:28.472Z,10.77
2018-03-18T16:49:00.696Z,8.30
2018-03-18T16:51:32.575Z,11.13
2018-03-18T16:54:04.724Z,10.73
2018-03-18T16:56:36.894Z,8.97
2018-03-18T16:59:08.787Z,12.57
2018-03-18T17:01:40.655Z,9.73
2018-03-18T17:04:12.573Z,9.53
2018-03-18T17:06:44.444Z,11.17
2018-03-18T17:09:16.602Z,9.27
2018-03-18T17:11:48.474Z,8.17
2018-03-18T17:14:20.633Z,11.93
2018-03-18T17:16:52.495Z,9.47
2018-03-18T17:19:24.425Z,9.03
2018-03-18T17:21:57.329Z,10.33
2018-03-18T17:24:29.216Z,9.80
2018-03-18T17:27:01.094Z,9.33
2018-03-18T17:29:32.978Z,9.10
2018-03-18T17:32:04.864Z,14.53
2018-03-18T17:34:37.522Z,8.73
2018-03-18T17:37:10.159Z,8.10
2018-03-18T17:39:42.051Z,7.70
2018-03-18T17:42:13.925Z,7.27
2018-03-18T17:44:58.580Z,10.60
2018-03-18T17:47:43.239Z,9.53
2018-03-18T17:50:24.749Z,10.97
2018-03-18T17:53:08.667Z,7.77
2018-03-18T17:55:41.415Z,6.90
2018-03-18T17:58:13.764Z,7.80
2018-03-18T18:00:45.754Z,8.93
2018-03-18T18:03:17.976Z,9.17
2018-03-18T18:05:49.860Z,11.37
2018-03-18T18:08:21.736Z,10.30
2018-03-18T18:10:53.625Z,10.57
2018-03-18T18:13:25.824Z,9.40
2018-03-18T18:15:57.826Z,8.50
2018-03-18T18:18:29.704Z,8.13
2018-03-18T18:21:01.597Z,8.13
2018-03-18T18:23:34.331Z,7.77
2018-03-18T18:26:06.452Z,9.13
2018-03-18T18:28:38.618Z,8.83
2018-03-18T18:31:10.511Z,8.73
2018-03-18T18:33:42.390Z,8.03
2018-03-18T18:36:14.305Z,6.70
2018-03-18T18:38:46.175Z,8.47
2018-03-18T18:41:18.059Z,9.43
2018-03-18T18:43:49.939Z,10.50
2018-03-18T18:46:22.153Z,8.03
2018-03-18T18:48:54.024Z,15.40
2018-03-18T18:51:25.915Z,6.57
2018-03-18T18:53:57.784Z,6.00
2018-03-18T18:56:29.674Z,7.07
2018-03-18T18:59:02.309Z,7.60
2018-03-18T19:01:34.199Z,10.23
2018-03-18T19:04:06.831Z,9.77
2018-03-18T19:06:38.719Z,7.93
2018-03-18T19:09:11.723Z,8.97
2018-03-18T19:11:44.763Z,8.77
2018-03-18T19:14:16.627Z,7.10
2018-03-18T19:16:48.568Z,8.73
2018-03-18T19:19:20.445Z,11.90
2018-03-18T19:21:52.302Z,9.00
2018-03-18T19:24:24.175Z,11.83
2018-03-18T19:26:56.300Z,8.10
2018-03-18T19:29:28.172Z,7.17
2018-03-18T19:32:00.060Z,10.60
2018-03-18T19:34:31.935Z,10.13
2018-03-18T19:37:03.824Z,9.87
2018-03-18T19:39:36.467Z,8.80
2018-03-18T19:42:08.356Z,9.27
2018-03-18T19:44:40.991Z,9.17
2018-03-18T19:47:12.884Z,8.70
2018-03-18T19:49:44.760Z,6.37
2018-03-18T19:52:17.414Z,9.63
2018-03-18T19:54:49.295Z,9.47
2018-03-18T19:57:21.947Z,7.53
2018-03-18T19:59:54.042Z,9.27
2018-03-18T20:02:26.700Z,8.17
2018-03-18T20:04:58.584Z,11.77
2018-03-18T20:07:30.480Z,11.60
2018-03-18T20:10:02.351Z,9.83
2018-03-18T20:12:34.484Z,11.30
2018-03-18T20:15:06.363Z,8.13
2018-03-18T20:17:38.252Z,7.90
2018-03-18T20:20:10.128Z,15.07
2018-03-18T20:22:42.024Z,10.17
2018-03-18T20:25:13.903Z,10.47
2018-03-18T20:27:45.792Z,10.20
2018-03-18T20:30:17.668Z,6.93
2018-03-18T20:32:49.557Z,14.23
2018-03-18T20:35:21.436Z,8.20
2018-03-18T20:37:53.588Z,11.67
2018-03-18T20:40:25.805Z,7.57
2018-03-18T20:42:57.920Z,9.20
2018-03-18T20:45:29.796Z,6.23
2018-03-18T20:48:01.688Z,8.63
2018-03-18T20:50:33.561Z,8.17
2018-03-18T20:53:05.497Z,8.37
2018-03-18T20:55:37.375Z,12.63
2018-03-18T20:58:09.588Z,6.73
2018-03-18T21:00:41.468Z,12.53
2018-03-18T21:03:13.372Z,9.07
2018-03-18T21:05:45.580Z,7.17
2018-03-18T21:08:17.472Z,9.97
2018-03-18T21:10:49.347Z,5.73
2018-03-18T21:13:21.262Z,5.67
2018-03-18T21:15:53.135Z,7.00
2018-03-18T21:18:25.079Z,6.57
2018-03-18T21:20:56.950Z,8.63
2018-03-18T21:23:28.839Z,7.23
2018-03-18T21:26:00.723Z,9.50
2018-03-18T21:28:32.620Z,7.53
2018-03-18T21:31:04.487Z,8.37
2018-03-18T21:33:36.379Z,8.57
2018-03-18T21:36:08.257Z,10.77
2018-03-18T21:38:40.467Z,8.07
2018-03-18T21:41:12.388Z,8.40
2018-03-18T21:43:44.280Z,10.67
2018-03-18T21:46:16.994Z,9.27
2018-03-18T21:48:48.864Z,10.23
2018-03-18T21:51:20.769Z,10.90
2018-03-18T21:53:52.644Z,7.73
2018-03-18T21:56:24.531Z,8.27
2018-03-18T21:58:56.676Z,10.13
2018-03-18T22:01:28.843Z,6.20
2018-03-18T22:04:00.742Z,9.87
2018-03-18T22:06:32.615Z,13.37
2018-03-18T22:09:04.579Z,10.23
2018-03-18T22:11:36.404Z,8.63
2018-03-18T22:14:08.548Z,9.93
2018-03-18T22:16:40.430Z,7.93
2018-03-18T22:19:12.329Z,11.77
2018-03-18T22:21:44.207Z,6.30
2018-03-18T22:24:16.885Z,12.27
2018-03-18T22:26:49.528Z,7.63
2018-03-18T22:29:21.431Z,9.20
2018-03-18T22:31:54.068Z,9.43
2018-03-18T22:34:25.959Z,9.97
2018-03-18T22:36:58.871Z,8.27
2018-03-18T22:39:30.757Z,7.93
2018-03-18T22:42:02.627Z,9.37
2018-03-18T22:44:34.527Z,8.77
2018-03-18T22:47:07.172Z,11.97
2018-03-18T22:49:39.071Z,10.00
2018-03-18T22:52:11.708Z,9.07
2018-03-18T22:54:43.604Z,11.00
2018-03-18T22:57:16.248Z,8.27
2018-03-18T22:59:48.167Z,10.37
2018-03-18T23:02:20.055Z,9.77
2018-03-18T23:04:52.187Z,7.13
2018-03-18T23:07:24.073Z,11.07
2018-03-18T23:09:55.968Z,8.10
2018-03-18T23:12:27.839Z,9.90
2018-03-18T23:14:59.731Z,9.43
2018-03-18T23:17:31.628Z,10.43
2018-03-18T23:20:03.519Z,10.33
2018-03-18T23:22:35.404Z,8.20
2018-03-18T23:25:08.055Z,8.67
2018-03-18T23:27:39.927Z,9.83
2018-03-18T23:30:12.583Z,9.80
2018-03-18T23:32:44.459Z,11.53
2018-03-18T23:35:17.120Z,7.67
2018-03-18T23:37:48.991Z,10.00
2018-03-18T23:40:20.888Z,9.60
2018-03-18T23:42:52.763Z,10.17
2018-03-18T23:45:24.671Z,7.00
2018-03-18T23:47:56.548Z,10.47
2018-03-18T23:50:30.195Z,8.40
2018-03-18T23:53:02.079Z,9.80
2018-03-18T23:55:33.963Z,9.30
2018-03-18T23:58:06.608Z,9.43
